Lexington, KY

9:05 AM EST on February 28, 2017 (GMT -0500)
Plainview | | Change Station

Elev 1001 ft 38.00 °N, 84.46 °W | Updated 5 seconds ago

Overcast
Overcast
50.3 °F
Feels Like 50.3 °F
N
3.0
Wind Variable Wind from SSE

Today
High -- | Low -- °F
--% Chance of Precip.
Yesterday
High -- | Low -- °F
Precip. -- in
Pressure 30.06 in
Visibility 10.0 miles
Clouds Mostly Cloudy 1900 ft
Overcast 6500 ft
Dew Point 47 °F
Humidity 90%
Rainfall 0.29 in
Snow Depth Not available.
7:10 AM 6:30 PM
Waxing Crescent, 5% visible
METAR KLEX 281354Z 17014KT 10SM VCTS BKN019 OVC065 11/08 A3006 RMK AO2 LTG DSNT SW-N RAB13E40 SLP180 P0007 T01110083 $
Pressure 30.06 in
Visibility 10.0 miles
Clouds Mostly Cloudy 1900 ft
Overcast 6500 ft
Dew Point 47 °F
Humidity 90%
Rainfall 0.29 in
Snow Depth Not available.
7:10 AM 6:30 PM
Waxing Crescent, 5% visible
METAR KLEX 281354Z 17014KT 10SM VCTS BKN019 OVC065 11/08 A3006 RMK AO2 LTG DSNT SW-N RAB13E40 SLP180 P0007 T01110083 $

Get Your Daily Forecast Email!

Thanks for signing up!

Be on the lookout for a verification email in your inbox.

You'll start receiving the daily forecast at 8 AM.

×

10-Day Weather Forecast

Almanac

Astronomy

Feb. 28, 2017 Rise Set
Actual Time
Civil Twilight
Nautical Twilight
Astronomical Twilight
Moon
Length of Visible Light
Length of Day
Tomorrow will be .
, % of the Moon is Illuminated

Today's Extremes

State Highs State Lows

Community

WunderPhotos

Upload Photos

1,962,540 photos uploaded!

WunderBlog® & News

Nearby

Air Quality

  Air Quality AQ Index Pollutant
Not available.

Snow Depth

Station Depth Elevation

Earthquake Activity

City Distance Mag. Time & Date
Minimum magnitude displayed is 2.5.

Coastal Water Temperatures

Place Temperature

Stations

Nearby Weather Stations

Station Location Temp. Windchill Dew Point Humidity Wind Precip. Elev Updated Type
                   

Watches & Warnings

There are currently no watches in effect.